Time;durP1;ratioP1;P1;durP2;ratioP2;P2;SDS_P1;SDS_P2;PMS_P1;PMS_P2;Temp;Humidity;BMP_temperature;BMP_pressure;BME280_temperature;BME280_humidity;BME280_pressure;Samples;Min_cycle;Max_cycle;Signal;HPM_P1;HPM_P2
2021/09/17 00:01:06;;;;;;;;;;;13.80;99.90;;;;;;5074989;28;19968;-85
2021/09/17 00:03:33;;;;;;;;;;;13.80;99.90;;;;;;5074693;28;19971;-86
2021/09/17 00:06:13;;;;;;;;;;;13.80;99.90;;;;;;5074661;28;19960;-84
2021/09/17 00:08:41;;;;;;;;;;;13.80;99.90;;;;;;5074784;28;19982;-85
2021/09/17 00:11:10;;;;;;;;;;;13.70;99.90;;;;;;5074631;28;19974;-85
2021/09/17 00:13:38;;;;;;;;;;;13.70;99.90;;;;;;5076175;28;19970;-85
2021/09/17 00:16:08;;;;;;;;;;;13.70;99.90;;;;;;5078577;28;20015;-85
2021/09/17 00:18:36;;;;;;;;;;;13.70;99.90;;;;;;5078729;28;20001;-85
2021/09/17 00:21:18;;;;;;;;;;;13.70;99.90;;;;;;5077918;28;19979;-85
2021/09/17 00:23:47;;;;;;;;;;;13.70;99.90;;;;;;5078341;28;20027;-85
2021/09/17 00:26:16;;;;;;;;;;;13.70;99.90;;;;;;5078434;28;19935;-85
2021/09/17 00:28:46;;;;;;;;;;;13.70;99.90;;;;;;5078229;28;20019;-85
2021/09/17 00:31:17;;;;;;;;;;;13.70;99.90;;;;;;5077737;28;19924;-85
2021/09/17 00:33:45;;;;;;;;;;;13.60;99.90;;;;;;5078067;28;19936;-85
2021/09/17 00:36:18;;;;;;;;;;;13.60;99.90;;;;;;5077954;28;20334;-85
2021/09/17 00:38:49;;;;;;;;;;;13.60;99.90;;;;;;5078068;28;20400;-85
2021/09/17 00:41:17;;;;;;;;;;;13.60;99.90;;;;;;5078321;28;19955;-85
2021/09/17 00:43:45;;;;;;;;;;;13.60;99.90;;;;;;5078031;28;19983;-85
2021/09/17 00:46:13;;;;;;;;;;;13.60;99.90;;;;;;5077966;28;20395;-85
2021/09/17 00:48:40;;;;;;;;;;;13.60;99.90;;;;;;5077883;28;19980;-85
2021/09/17 00:51:07;;;;;;;;;;;13.50;99.90;;;;;;5077901;28;20352;-85
2021/09/17 00:53:55;;;;;;;;;;;13.50;99.90;;;;;;5077751;28;19932;-84
2021/09/17 00:56:25;;;;;;;;;;;13.50;99.90;;;;;;5077502;28;19936;-85
2021/09/17 00:58:58;;;;;;;;;;;13.50;99.90;;;;;;5077654;28;19982;-85
2021/09/17 01:01:26;;;;;;;;;;;13.50;99.90;;;;;;5077550;28;19959;-85
2021/09/17 01:03:55;;;;;;;;;;;13.40;99.90;;;;;;5071796;28;20383;-85
2021/09/17 01:06:23;;;;;;;;;;;13.40;99.90;;;;;;5077598;28;19972;-84
2021/09/17 01:08:57;;;;;;;;;;;13.40;99.90;;;;;;5077526;28;19974;-85
2021/09/17 01:11:26;;;;;;;;;;;13.40;99.90;;;;;;5077505;28;19985;-85
2021/09/17 01:13:54;;;;;;;;;;;13.40;99.90;;;;;;5077416;28;20318;-84
2021/09/17 01:16:24;;;;;;;;;;;13.40;99.90;;;;;;5077280;28;19967;-85
2021/09/17 01:18:53;;;;;;;;;;;13.40;99.90;;;;;;5077244;28;20234;-85
2021/09/17 01:21:22;;;;;;;;;;;13.40;99.90;;;;;;5077416;28;19951;-85
2021/09/17 01:23:53;;;;;;;;;;;13.40;99.90;;;;;;5076984;28;19963;-85
2021/09/17 01:26:23;;;;;;;;;;;13.30;99.90;;;;;;5077189;28;19931;-85
2021/09/17 01:28:54;;;;;;;;;;;13.40;99.90;;;;;;5077251;28;19959;-85
2021/09/17 01:31:22;;;;;;;;;;;13.30;99.90;;;;;;5076542;28;19963;-85
2021/09/17 01:33:52;;;;;;;;;;;13.20;99.90;;;;;;5077080;28;19979;-84
2021/09/17 01:36:22;;;;;;;;;;;13.20;99.90;;;;;;5077207;28;19925;-85
2021/09/17 01:38:49;;;;;;;;;;;13.20;99.90;;;;;;5076905;28;19998;-85
2021/09/17 01:41:18;;;;;;;;;;;13.10;99.90;;;;;;5076906;28;19990;-85
2021/09/17 01:43:46;;;;;;;;;;;13.10;99.90;;;;;;5076934;28;20332;-85
2021/09/17 01:46:14;;;;;;;;;;;13.10;99.90;;;;;;5076821;28;20019;-85
2021/09/17 01:48:42;;;;;;;;;;;13.10;99.90;;;;;;5076722;28;19943;-85
2021/09/17 01:51:10;;;;;;;;;;;13.10;99.90;;;;;;5076155;28;20336;-85
2021/09/17 01:53:48;;;;;;;;;;;13.10;99.90;;;;;;5076547;28;20015;-85
2021/09/17 01:56:16;;;;;;;;;;;13.10;99.90;;;;;;5059055;28;19932;-85
2021/09/17 01:58:44;;;;;;;;;;;13.10;99.90;;;;;;5076571;28;19979;-85
2021/09/17 02:01:13;;;;;;;;;;;13.10;99.90;;;;;;5076584;28;20344;-85
2021/09/17 02:03:41;;;;;;;;;;;13.00;99.90;;;;;;5076432;28;19986;-85
2021/09/17 02:06:10;;;;;;;;;;;13.00;99.90;;;;;;5076384;28;19978;-85
2021/09/17 02:08:38;;;;;;;;;;;13.00;99.90;;;;;;5076527;28;20024;-84
2021/09/17 02:11:07;;;;;;;;;;;13.00;99.90;;;;;;5076414;28;19975;-85
2021/09/17 02:13:34;;;;;;;;;;;13.00;99.90;;;;;;5076166;28;19964;-85
2021/09/17 02:16:01;;;;;;;;;;;13.00;99.90;;;;;;5076006;28;19976;-85
2021/09/17 02:18:28;;;;;;;;;;;13.00;99.90;;;;;;5075608;28;20019;-85
2021/09/17 02:20:55;;;;;;;;;;;13.00;99.90;;;;;;5076090;28;20024;-85
2021/09/17 02:23:22;;;;;;;;;;;12.90;99.90;;;;;;5076216;28;19964;-85
2021/09/17 02:25:49;;;;;;;;;;;12.90;99.90;;;;;;5075987;28;19974;-85
2021/09/17 02:28:17;;;;;;;;;;;12.80;99.90;;;;;;5075083;28;20009;-85
2021/09/17 02:30:44;;;;;;;;;;;12.80;99.90;;;;;;5075715;28;20031;-85
2021/09/17 02:33:11;;;;;;;;;;;12.80;99.90;;;;;;5075783;28;20023;-85
2021/09/17 02:35:38;;;;;;;;;;;12.80;99.90;;;;;;5075139;28;19925;-85
2021/09/17 02:38:05;;;;;;;;;;;12.80;99.90;;;;;;5075831;28;19998;-85
2021/09/17 02:40:33;;;;;;;;;;;12.80;99.90;;;;;;5075587;28;19975;-85
2021/09/17 02:43:01;;;;;;;;;;;12.80;99.90;;;;;;5075671;28;20343;-85
2021/09/17 02:45:31;;;;;;;;;;;12.80;99.90;;;;;;5075633;28;19925;-85
2021/09/17 02:47:59;;;;;;;;;;;12.80;99.90;;;;;;5075827;28;19968;-85
2021/09/17 02:50:27;;;;;;;;;;;12.80;99.90;;;;;;5075586;28;19978;-85
2021/09/17 02:52:54;;;;;;;;;;;12.80;99.90;;;;;;5075427;28;20380;-84
2021/09/17 02:55:30;;;;;;;;;;;12.80;99.90;;;;;;5075666;28;20032;-85
2021/09/17 02:57:59;;;;;;;;;;;12.80;99.90;;;;;;5075104;28;19936;-85
2021/09/17 03:00:30;;;;;;;;;;;12.80;99.90;;;;;;5075217;28;19925;-85
2021/09/17 03:03:02;;;;;;;;;;;12.80;99.90;;;;;;5075374;28;19928;-85
2021/09/17 03:05:30;;;;;;;;;;;12.80;99.90;;;;;;5075322;28;19936;-84
2021/09/17 03:08:01;;;;;;;;;;;12.80;99.90;;;;;;5075345;28;20353;-85
2021/09/17 03:10:29;;;;;;;;;;;12.80;99.90;;;;;;5075272;28;20011;-85
2021/09/17 03:12:59;;;;;;;;;;;12.80;99.90;;;;;;5073180;28;20361;-85
2021/09/17 03:15:28;;;;;;;;;;;12.80;99.90;;;;;;5075156;28;19932;-84
2021/09/17 03:17:55;;;;;;;;;;;12.80;99.90;;;;;;5075143;28;19925;-85
2021/09/17 03:20:26;;;;;;;;;;;12.80;99.90;;;;;;5074718;28;19951;-84
2021/09/17 03:22:54;;;;;;;;;;;12.80;99.90;;;;;;5075098;28;19984;-85
2021/09/17 03:25:22;;;;;;;;;;;12.80;99.90;;;;;;5075155;28;20019;-85
2021/09/17 03:27:50;;;;;;;;;;;12.80;99.90;;;;;;5074320;28;19955;-85
2021/09/17 03:30:19;;;;;;;;;;;12.80;99.90;;;;;;5055346;28;20010;-85
2021/09/17 03:32:51;;;;;;;;;;;12.80;99.90;;;;;;5062577;28;19964;-85
2021/09/17 03:35:19;;;;;;;;;;;12.80;99.90;;;;;;5072568;28;20362;-85
2021/09/17 03:37:59;;;;;;;;;;;12.80;99.90;;;;;;5074876;28;19964;-85
2021/09/17 03:40:27;;;;;;;;;;;12.80;99.90;;;;;;5075246;28;19963;-85
2021/09/17 03:42:55;;;;;;;;;;;12.70;99.90;;;;;;5075015;28;19959;-84
2021/09/17 03:45:27;;;;;;;;;;;12.70;99.90;;;;;;5074878;28;19971;-84
2021/09/17 03:47:55;;;;;;;;;;;12.60;99.90;;;;;;5077131;28;19978;-85
2021/09/17 03:50:23;;;;;;;;;;;12.60;99.90;;;;;;5078928;28;20037;-85
2021/09/17 03:52:51;;;;;;;;;;;12.60;99.90;;;;;;5078912;28;19964;-85
2021/09/17 03:55:22;;;;;;;;;;;12.50;99.90;;;;;;5078962;28;19968;-85
2021/09/17 03:57:51;;;;;;;;;;;12.50;99.90;;;;;;5078971;28;19935;-85
2021/09/17 04:00:21;;;;;;;;;;;12.50;99.90;;;;;;5078925;28;20014;-85
2021/09/17 04:02:49;;;;;;;;;;;12.50;99.90;;;;;;5078723;28;20028;-85
2021/09/17 04:05:17;;;;;;;;;;;12.50;99.90;;;;;;5078705;28;20395;-85
2021/09/17 04:07:45;;;;;;;;;;;12.50;99.90;;;;;;5078928;28;19972;-85
2021/09/17 04:10:15;;;;;;;;;;;12.50;99.90;;;;;;5078589;28;19972;-85
2021/09/17 04:12:43;;;;;;;;;;;12.50;99.90;;;;;;5078077;28;19967;-85
2021/09/17 04:15:12;;;;;;;;;;;12.50;99.90;;;;;;5078469;28;20002;-85
2021/09/17 04:17:40;;;;;;;;;;;12.50;99.90;;;;;;5078384;28;20366;-85
2021/09/17 04:20:08;;;;;;;;;;;12.50;99.90;;;;;;5078292;28;19975;-85
2021/09/17 04:22:36;;;;;;;;;;;12.50;99.90;;;;;;5078343;28;19982;-85
2021/09/17 04:25:05;;;;;;;;;;;12.50;99.90;;;;;;5078269;28;19978;-85
2021/09/17 04:27:35;;;;;;;;;;;12.50;99.90;;;;;;5078225;28;19925;-85
2021/09/17 04:30:04;;;;;;;;;;;12.40;99.90;;;;;;5078178;28;19982;-85
2021/09/17 04:32:33;;;;;;;;;;;12.40;99.90;;;;;;5078056;28;19935;-85
2021/09/17 04:35:01;;;;;;;;;;;12.40;99.90;;;;;;5078045;28;19967;-85
2021/09/17 04:37:29;;;;;;;;;;;12.40;99.90;;;;;;5078173;28;20319;-86
2021/09/17 04:39:56;;;;;;;;;;;12.40;99.90;;;;;;5078051;28;19924;-85
2021/09/17 04:42:25;;;;;;;;;;;12.40;99.90;;;;;;5078054;28;19967;-85
2021/09/17 04:44:54;;;;;;;;;;;12.40;99.90;;;;;;5077701;28;19974;-85
2021/09/17 04:47:22;;;;;;;;;;;12.30;99.90;;;;;;5077758;28;19964;-85
2021/09/17 04:49:50;;;;;;;;;;;12.30;99.90;;;;;;5077877;28;20438;-85
2021/09/17 04:52:20;;;;;;;;;;;12.30;99.90;;;;;;5077932;28;19963;-85
2021/09/17 04:54:48;;;;;;;;;;;12.30;99.90;;;;;;5077860;28;20016;-85
2021/09/17 04:57:16;;;;;;;;;;;12.30;99.90;;;;;;5077469;28;20381;-85
2021/09/17 04:59:44;;;;;;;;;;;12.30;99.90;;;;;;5076772;28;20375;-85
2021/09/17 05:02:14;;;;;;;;;;;12.30;99.90;;;;;;5077753;28;19982;-85
2021/09/17 05:04:42;;;;;;;;;;;12.30;99.90;;;;;;5077337;28;19975;-85
2021/09/17 05:07:11;;;;;;;;;;;12.20;99.90;;;;;;5077252;28;20019;-85
2021/09/17 05:09:39;;;;;;;;;;;12.20;99.90;;;;;;5077461;28;19986;-85
2021/09/17 05:12:07;;;;;;;;;;;12.30;99.90;;;;;;5076990;28;19975;-86
2021/09/17 05:14:35;;;;;;;;;;;12.20;99.90;;;;;;5077290;28;20397;-85
2021/09/17 05:17:04;;;;;;;;;;;12.20;99.90;;;;;;5077012;28;20351;-85
2021/09/17 05:19:33;;;;;;;;;;;12.20;99.90;;;;;;5077266;28;19975;-85
2021/09/17 05:22:01;;;;;;;;;;;12.20;99.90;;;;;;5077274;28;19968;-85
2021/09/17 05:24:30;;;;;;;;;;;12.20;99.90;;;;;;5077142;28;20015;-85
2021/09/17 05:26:58;;;;;;;;;;;12.10;99.90;;;;;;5077022;28;20011;-85
2021/09/17 05:29:26;;;;;;;;;;;12.20;99.90;;;;;;5077075;28;20019;-85
2021/09/17 05:31:54;;;;;;;;;;;12.10;99.90;;;;;;5077181;28;19964;-85
2021/09/17 05:34:22;;;;;;;;;;;12.10;99.90;;;;;;5076933;28;19974;-85
2021/09/17 05:36:52;;;;;;;;;;;12.10;99.90;;;;;;5076794;28;19964;-86
2021/09/17 05:39:20;;;;;;;;;;;12.10;99.90;;;;;;5076727;28;19974;-85
2021/09/17 05:41:49;;;;;;;;;;;12.20;99.90;;;;;;5076871;28;19978;-85
2021/09/17 05:44:17;;;;;;;;;;;12.20;99.90;;;;;;5076835;28;19966;-85
2021/09/17 05:46:45;;;;;;;;;;;12.10;99.90;;;;;;5076702;28;19972;-85
2021/09/17 05:49:13;;;;;;;;;;;12.20;99.90;;;;;;5076632;28;20289;-85
2021/09/17 05:51:42;;;;;;;;;;;12.10;99.90;;;;;;5076609;28;19998;-85
2021/09/17 05:54:12;;;;;;;;;;;12.10;99.90;;;;;;5076621;28;19975;-85
2021/09/17 05:56:40;;;;;;;;;;;12.10;99.90;;;;;;5076569;28;20353;-85
2021/09/17 05:59:08;;;;;;;;;;;12.10;99.90;;;;;;5076504;28;20344;-85
2021/09/17 06:01:35;;;;;;;;;;;12.20;99.90;;;;;;5076709;28;19971;-85
2021/09/17 06:04:02;;;;;;;;;;;12.20;99.90;;;;;;5076510;28;19974;-85
2021/09/17 06:06:29;;;;;;;;;;;12.20;99.90;;;;;;5076351;28;19959;-85
2021/09/17 06:08:57;;;;;;;;;;;12.20;99.90;;;;;;5076340;28;20353;-85
2021/09/17 06:11:25;;;;;;;;;;;12.20;99.90;;;;;;5075219;28;20265;-85
2021/09/17 06:13:52;;;;;;;;;;;12.20;99.90;;;;;;5075228;28;19959;-85
2021/09/17 06:16:19;;;;;;;;;;;12.30;99.90;;;;;;5076606;28;19924;-85
2021/09/17 06:18:46;;;;;;;;;;;12.30;99.90;;;;;;5076122;28;20405;-85
2021/09/17 06:21:13;;;;;;;;;;;12.40;99.90;;;;;;5076146;28;20031;-85
2021/09/17 06:23:41;;;;;;;;;;;12.40;99.90;;;;;;5076317;28;20003;-86
2021/09/17 06:26:08;;;;;;;;;;;12.40;99.90;;;;;;5076170;28;19924;-85
2021/09/17 06:28:36;;;;;;;;;;;12.40;99.90;;;;;;5076017;28;19968;-85
2021/09/17 06:31:03;;;;;;;;;;;12.40;99.90;;;;;;5075947;28;20357;-85
2021/09/17 06:33:30;;;;;;;;;;;12.50;99.90;;;;;;5075890;28;19968;-85
2021/09/17 06:35:57;;;;;;;;;;;12.50;99.90;;;;;;5076045;28;19976;-85
2021/09/17 06:38:24;;;;;;;;;;;12.50;99.90;;;;;;5075716;28;20027;-85
2021/09/17 06:40:51;;;;;;;;;;;12.60;99.90;;;;;;5075792;28;19982;-84
2021/09/17 06:43:18;;;;;;;;;;;12.60;99.90;;;;;;5075795;28;20404;-85
2021/09/17 06:45:46;;;;;;;;;;;12.60;99.90;;;;;;5075917;28;19964;-85
2021/09/17 06:48:13;;;;;;;;;;;12.70;99.90;;;;;;5075673;28;19964;-85
2021/09/17 06:50:40;;;;;;;;;;;12.70;99.90;;;;;;5075789;28;20020;-85
2021/09/17 06:53:07;;;;;;;;;;;12.70;99.90;;;;;;5075530;28;20408;-85
2021/09/17 06:55:34;;;;;;;;;;;12.80;99.90;;;;;;5075722;28;19967;-85
2021/09/17 06:58:01;;;;;;;;;;;12.90;99.90;;;;;;5075363;28;20364;-85
2021/09/17 07:00:28;;;;;;;;;;;13.00;99.90;;;;;;5075458;28;19978;-85
2021/09/17 07:02:56;;;;;;;;;;;13.00;99.90;;;;;;5075431;28;19972;-84
2021/09/17 07:05:23;;;;;;;;;;;13.10;99.90;;;;;;5075430;28;19955;-85
2021/09/17 07:07:50;;;;;;;;;;;13.20;99.90;;;;;;5075401;28;19960;-85
2021/09/17 07:10:18;;;;;;;;;;;13.30;99.90;;;;;;5075433;28;19967;-85
2021/09/17 07:12:45;;;;;;;;;;;13.40;99.90;;;;;;5075047;28;19924;-85
2021/09/17 07:15:12;;;;;;;;;;;13.40;99.90;;;;;;5075392;28;19948;-85
2021/09/17 07:17:39;;;;;;;;;;;13.50;99.90;;;;;;5075172;28;20403;-85
2021/09/17 07:20:08;;;;;;;;;;;13.60;99.90;;;;;;5075203;28;19978;-85
2021/09/17 07:22:35;;;;;;;;;;;13.70;99.90;;;;;;5074977;28;19968;-85
2021/09/17 07:25:03;;;;;;;;;;;13.70;99.90;;;;;;5075216;28;19964;-85
2021/09/17 07:27:30;;;;;;;;;;;13.80;99.90;;;;;;5075059;28;20268;-85
2021/09/17 07:29:57;;;;;;;;;;;13.90;99.90;;;;;;5075068;28;19966;-85
2021/09/17 07:32:26;;;;;;;;;;;13.90;99.90;;;;;;5074262;28;20194;-86
2021/09/17 07:34:53;;;;;;;;;;;14.00;99.90;;;;;;5075324;28;19935;-85
2021/09/17 07:37:22;;;;;;;;;;;14.10;99.90;;;;;;5075104;28;19932;-85
2021/09/17 07:39:49;;;;;;;;;;;14.10;99.90;;;;;;5075054;28;19955;-85
2021/09/17 07:42:15;;;;;;;;;;;14.20;99.90;;;;;;5074985;28;19932;-85
2021/09/17 07:44:42;;;;;;;;;;;14.30;99.90;;;;;;5074852;28;19964;-85
2021/09/17 07:47:09;;;;;;;;;;;14.30;99.90;;;;;;5075055;28;20015;-85
2021/09/17 07:49:36;;;;;;;;;;;14.50;99.90;;;;;;5074967;28;19968;-86
2021/09/17 07:52:03;;;;;;;;;;;14.50;99.90;;;;;;5074739;28;19963;-85
2021/09/17 07:54:32;;;;;;;;;;;14.60;99.90;;;;;;5074887;28;19997;-86
2021/09/17 07:56:59;;;;;;;;;;;14.60;99.90;;;;;;5074901;28;19960;-87
2021/09/17 07:59:25;;;;;;;;;;;14.70;99.90;;;;;;5074632;28;20253;-87
2021/09/17 08:01:52;;;;;;;;;;;14.70;99.90;;;;;;5074716;28;20395;-87
2021/09/17 08:04:19;;;;;;;;;;;14.80;99.90;;;;;;5074849;28;19986;-87
2021/09/17 08:06:46;;;;;;;;;;;14.90;99.90;;;;;;5074979;28;20009;-85
2021/09/17 08:09:13;;;;;;;;;;;15.00;99.90;;;;;;5074803;28;19995;-86
2021/09/17 08:11:43;;;;;;;;;;;15.10;99.90;;;;;;5074517;28;19983;-86
2021/09/17 08:14:10;;;;;;;;;;;15.10;99.90;;;;;;5074678;28;19938;-87
2021/09/17 08:16:37;;;;;;;;;;;15.20;99.90;;;;;;5075107;28;19983;-86
2021/09/17 08:19:04;;;;;;;;;;;15.20;99.90;;;;;;5074551;28;20027;-86
2021/09/17 08:21:31;;;;;;;;;;;15.30;99.90;;;;;;5074677;28;19924;-86
2021/09/17 08:23:58;;;;;;;;;;;15.30;99.90;;;;;;5074499;28;20372;-84
2021/09/17 08:26:25;;;;;;;;;;;15.40;99.90;;;;;;5074511;28;19976;-86
2021/09/17 08:28:53;;;;;;;;;;;15.40;99.90;;;;;;5074609;28;20348;-86
2021/09/17 08:31:20;;;;;;;;;;;15.50;99.90;;;;;;5074698;28;19971;-86
2021/09/17 08:33:47;;;;;;;;;;;15.60;99.90;;;;;;5074674;28;19970;-86
2021/09/17 08:36:14;;;;;;;;;;;15.70;99.90;;;;;;5078235;28;19924;-85
2021/09/17 08:38:41;;;;;;;;;;;15.70;99.90;;;;;;5078060;28;20377;-86
2021/09/17 08:41:10;;;;;;;;;;;15.70;99.90;;;;;;5077970;28;19976;-86
2021/09/17 08:43:37;;;;;;;;;;;15.80;99.90;;;;;;5077920;28;19925;-85
2021/09/17 08:46:05;;;;;;;;;;;15.80;99.90;;;;;;5077893;28;19924;-85
2021/09/17 08:48:32;;;;;;;;;;;15.80;99.90;;;;;;5077986;28;20019;-86
2021/09/17 08:50:59;;;;;;;;;;;15.80;99.90;;;;;;5077886;28;20395;-85
2021/09/17 08:53:26;;;;;;;;;;;15.90;99.90;;;;;;5077815;28;19972;-85
2021/09/17 08:55:53;;;;;;;;;;;15.90;99.90;;;;;;5077933;28;19971;-85
2021/09/17 08:58:20;;;;;;;;;;;15.90;99.90;;;;;;5077683;28;20329;-85
2021/09/17 09:00:46;;;;;;;;;;;15.90;99.90;;;;;;5078026;28;19975;-85
2021/09/17 09:03:28;;;;;;;;;;;16.00;99.90;;;;;;5077579;28;19964;-85
2021/09/17 09:05:55;;;;;;;;;;;16.00;99.90;;;;;;5077620;28;19924;-85
2021/09/17 09:08:22;;;;;;;;;;;16.10;99.90;;;;;;5077502;28;19964;-86
2021/09/17 09:10:49;;;;;;;;;;;16.20;99.90;;;;;;5077868;28;19987;-85
2021/09/17 09:13:16;;;;;;;;;;;16.20;99.90;;;;;;5077427;28;20336;-85
2021/09/17 09:15:43;;;;;;;;;;;16.20;99.90;;;;;;5077516;28;19976;-85
2021/09/17 09:18:11;;;;;;;;;;;16.10;99.90;;;;;;5077277;28;20019;-85
2021/09/17 09:20:40;;;;;;;;;;;16.10;99.90;;;;;;5077292;28;19994;-85
2021/09/17 09:23:08;;;;;;;;;;;16.10;99.90;;;;;;5077240;28;19924;-85
2021/09/17 09:25:35;;;;;;;;;;;16.00;99.90;;;;;;5077199;28;20356;-85
2021/09/17 09:28:11;;;;;;;;;;;16.00;99.90;;;;;;5077208;28;20011;-85
2021/09/17 09:30:38;;;;;;;;;;;16.00;99.90;;;;;;5077147;28;19975;-85
2021/09/17 09:33:20;;;;;;;;;;;16.00;99.90;;;;;;5077110;28;20408;-85
2021/09/17 09:35:48;;;;;;;;;;;16.00;99.90;;;;;;5077200;28;19975;-86
2021/09/17 09:38:28;;;;;;;;;;;16.00;99.90;;;;;;5077128;28;19924;-85
2021/09/17 09:40:57;;;;;;;;;;;16.00;99.90;;;;;;5077013;28;20368;-85
2021/09/17 09:43:26;;;;;;;;;;;16.10;99.90;;;;;;5076983;28;19971;-85
2021/09/17 09:45:53;;;;;;;;;;;16.10;99.90;;;;;;5076714;28;19983;-85
2021/09/17 09:48:20;;;;;;;;;;;16.10;99.90;;;;;;5077030;28;20005;-85
2021/09/17 09:50:48;;;;;;;;;;;16.20;99.90;;;;;;5076832;28;19971;-85
2021/09/17 09:53:15;;;;;;;;;;;16.20;99.90;;;;;;5076796;28;19979;-85
2021/09/17 09:55:42;;;;;;;;;;;16.20;99.90;;;;;;5076589;28;20017;-85
2021/09/17 09:58:09;;;;;;;;;;;16.30;99.90;;;;;;5076475;28;19979;-85
2021/09/17 10:00:36;;;;;;;;;;;16.40;99.90;;;;;;5076504;28;20474;-85
2021/09/17 10:03:03;;;;;;;;;;;16.40;99.90;;;;;;5076607;28;19978;-85
2021/09/17 10:05:31;;;;;;;;;;;16.50;99.90;;;;;;5076585;28;19972;-85
2021/09/17 10:07:59;;;;;;;;;;;16.60;99.90;;;;;;5076497;28;20010;-85
2021/09/17 10:10:26;;;;;;;;;;;16.60;99.90;;;;;;5076383;28;19978;-86
2021/09/17 10:12:53;;;;;;;;;;;16.70;99.90;;;;;;5076155;28;19928;-85
2021/09/17 10:15:20;;;;;;;;;;;16.70;99.90;;;;;;5076249;28;20014;-85
2021/09/17 10:17:49;;;;;;;;;;;16.70;99.90;;;;;;5076519;28;19964;-85
2021/09/17 10:20:16;;;;;;;;;;;16.70;99.90;;;;;;5076286;28;20007;-86
2021/09/17 10:22:44;;;;;;;;;;;16.80;99.90;;;;;;5076228;28;19993;-85
2021/09/17 10:25:14;;;;;;;;;;;16.90;99.90;;;;;;5076163;28;20318;-85
2021/09/17 10:27:41;;;;;;;;;;;16.90;99.90;;;;;;5076044;28;20312;-85
2021/09/17 10:30:08;;;;;;;;;;;17.00;99.90;;;;;;5076204;28;19993;-85
2021/09/17 10:32:42;;;;;;;;;;;17.10;99.90;;;;;;5076009;28;20388;-85
2021/09/17 10:35:11;;;;;;;;;;;17.10;99.90;;;;;;5075943;28;19978;-85
2021/09/17 10:38:15;;;;;;;;;;;17.10;99.90;;;;;;5075920;28;20023;-85
2021/09/17 10:40:45;;;;;;;;;;;17.10;99.90;;;;;;5075644;28;19978;-85
2021/09/17 10:43:22;;;;;;;;;;;17.20;99.90;;;;;;5075879;28;19924;-84
2021/09/17 10:45:49;;;;;;;;;;;17.30;99.90;;;;;;5075961;28;19971;-84
2021/09/17 10:48:16;;;;;;;;;;;17.30;99.90;;;;;;5075656;28;20383;-85
2021/09/17 10:50:44;;;;;;;;;;;17.30;99.90;;;;;;5075720;28;19971;-85
2021/09/17 10:53:11;;;;;;;;;;;17.40;99.90;;;;;;5075493;28;19971;-85
2021/09/17 10:56:05;;;;;;;;;;;17.50;99.90;;;;;;5075459;28;19978;-85
2021/09/17 10:58:33;;;;;;;;;;;17.60;99.90;;;;;;5069605;28;20011;-85
2021/09/17 11:01:01;;;;;;;;;;;17.60;99.90;;;;;;5075321;28;20370;-85
2021/09/17 11:03:46;;;;;;;;;;;17.70;99.90;;;;;;5075355;28;19932;-85
2021/09/17 11:06:24;;;;;;;;;;;17.70;99.90;;;;;;5071618;28;19960;-85
2021/09/17 11:08:51;;;;;;;;;;;17.80;99.90;;;;;;5075502;28;20351;-85
2021/09/17 11:11:22;;;;;;;;;;;17.90;99.90;;;;;;5075245;28;19998;-85
2021/09/17 11:13:50;;;;;;;;;;;17.80;99.90;;;;;;5075166;28;19925;-85
2021/09/17 11:16:17;;;;;;;;;;;17.70;99.90;;;;;;5075408;28;20124;-84
2021/09/17 11:18:53;;;;;;;;;;;17.70;99.90;;;;;;5075298;28;19986;-85
2021/09/17 11:21:20;;;;;;;;;;;17.80;99.90;;;;;;5075260;28;19960;-85
2021/09/17 11:23:51;;;;;;;;;;;17.80;99.90;;;;;;5075381;28;19924;-85
2021/09/17 11:26:21;;;;;;;;;;;17.70;99.90;;;;;;5075251;28;20268;-85
2021/09/17 11:29:06;;;;;;;;;;;17.80;99.90;;;;;;5075083;28;20321;-85
2021/09/17 11:31:35;;;;;;;;;;;17.80;99.90;;;;;;5075176;28;19968;-85
2021/09/17 11:34:02;;;;;;;;;;;17.80;99.90;;;;;;5075138;28;19924;-85
2021/09/17 11:36:37;;;;;;;;;;;17.90;99.90;;;;;;5075113;28;19924;-85
2021/09/17 11:39:17;;;;;;;;;;;17.90;99.90;;;;;;5074892;28;19971;-84
2021/09/17 11:41:46;;;;;;;;;;;18.00;99.90;;;;;;5075053;28;19928;-85
2021/09/17 11:44:29;;;;;;;;;;;18.00;99.90;;;;;;5074996;28;20023;-85
2021/09/17 11:46:58;;;;;;;;;;;18.10;99.90;;;;;;5073994;28;20315;-85
2021/09/17 11:49:26;;;;;;;;;;;18.00;99.90;;;;;;5074910;28;19978;-84
2021/09/17 11:52:03;;;;;;;;;;;18.00;99.90;;;;;;5074798;28;20023;-85
2021/09/17 11:54:31;;;;;;;;;;;18.00;99.90;;;;;;5074937;28;20344;-85
2021/09/17 11:57:00;;;;;;;;;;;18.00;99.90;;;;;;5074944;28;19928;-85
2021/09/17 11:59:35;;;;;;;;;;;18.10;99.90;;;;;;5074705;28;19984;-85
2021/09/17 12:02:16;;;;;;;;;;;18.10;99.90;;;;;;5074764;28;19971;-86
2021/09/17 12:04:47;;;;;;;;;;;18.20;99.90;;;;;;5074765;28;19931;-85
2021/09/17 12:07:15;;;;;;;;;;;18.20;99.90;;;;;;5075184;28;19928;-85
2021/09/17 12:09:44;;;;;;;;;;;18.20;99.90;;;;;;5078135;28;19978;-85
2021/09/17 12:12:12;;;;;;;;;;;18.20;99.90;;;;;;5078345;28;19982;-86
2021/09/17 12:14:39;;;;;;;;;;;18.20;99.90;;;;;;5078583;28;20328;-86
2021/09/17 12:17:07;;;;;;;;;;;18.20;99.90;;;;;;5079004;28;19968;-87
2021/09/17 12:19:53;;;;;;;;;;;18.30;99.90;;;;;;5078389;28;19976;-85
2021/09/17 12:22:28;;;;;;;;;;;18.40;99.90;;;;;;5078452;28;19972;-86
2021/09/17 12:25:06;;;;;;;;;;;18.40;99.90;;;;;;5078437;28;19939;-85
2021/09/17 12:27:35;;;;;;;;;;;18.50;99.90;;;;;;5078416;28;20035;-86
2021/09/17 12:30:04;;;;;;;;;;;18.50;99.90;;;;;;5078627;28;20007;-86
2021/09/17 12:32:31;;;;;;;;;;;18.40;99.90;;;;;;5078203;28;19971;-86
2021/09/17 12:35:04;;;;;;;;;;;18.40;99.90;;;;;;5078232;28;19974;-87
2021/09/17 12:37:33;;;;;;;;;;;18.40;99.90;;;;;;5078139;28;19976;-86
2021/09/17 12:40:27;;;;;;;;;;;18.40;99.90;;;;;;5078141;28;20356;-88
2021/09/17 12:43:01;;;;;;;;;;;18.40;99.90;;;;;;5073129;28;20353;-87
2021/09/17 12:45:30;;;;;;;;;;;18.40;99.90;;;;;;5078300;28;19951;-86
2021/09/17 12:47:59;;;;;;;;;;;18.40;99.90;;;;;;5078076;28;19929;-87
2021/09/17 12:50:31;;;;;;;;;;;18.40;99.90;;;;;;5077852;28;19980;-86
2021/09/17 12:53:05;;;;;;;;;;;18.30;99.90;;;;;;5077943;28;19975;-86
2021/09/17 12:55:34;;;;;;;;;;;18.30;99.90;;;;;;5077904;28;19972;-87
2021/09/17 12:58:05;;;;;;;;;;;18.30;99.90;;;;;;5077897;28;19982;-87
2021/09/17 13:00:35;;;;;;;;;;;18.40;99.90;;;;;;5077805;28;19977;-87
2021/09/17 13:03:05;;;;;;;;;;;18.50;99.90;;;;;;5078024;28;19934;-87
2021/09/17 13:05:34;;;;;;;;;;;18.50;99.90;;;;;;5077622;28;19932;-87
2021/09/17 13:08:04;;;;;;;;;;;18.40;99.90;;;;;;5077684;28;19967;-86
2021/09/17 13:10:32;;;;;;;;;;;18.40;99.90;;;;;;5077663;28;19972;-87
2021/09/17 13:13:00;;;;;;;;;;;18.40;99.90;;;;;;5077238;28;19964;-87
2021/09/17 13:15:28;;;;;;;;;;;18.50;99.90;;;;;;5077699;28;19982;-86
2021/09/17 13:17:59;;;;;;;;;;;18.50;99.90;;;;;;5077883;28;19968;-86
2021/09/17 13:20:27;;;;;;;;;;;18.50;99.90;;;;;;5076992;28;20350;-87
2021/09/17 13:22:55;;;;;;;;;;;18.50;99.90;;;;;;5077302;28;19974;-85
2021/09/17 13:25:25;;;;;;;;;;;18.50;99.90;;;;;;5077235;28;19968;-86
2021/09/17 13:27:53;;;;;;;;;;;18.50;99.90;;;;;;5077254;28;19980;-86
2021/09/17 13:30:22;;;;;;;;;;;18.50;99.90;;;;;;5077521;28;19932;-86
2021/09/17 13:32:51;;;;;;;;;;;18.50;99.90;;;;;;5077244;28;19967;-87
2021/09/17 13:35:21;;;;;;;;;;;18.60;99.90;;;;;;5077189;28;20260;-86
2021/09/17 13:37:50;;;;;;;;;;;18.60;99.90;;;;;;5077165;28;20027;-87
2021/09/17 13:40:21;;;;;;;;;;;18.60;99.90;;;;;;5077389;28;20030;-87
2021/09/17 13:42:52;;;;;;;;;;;18.60;99.90;;;;;;5077063;28;19934;-86
2021/09/17 13:45:22;;;;;;;;;;;18.50;99.90;;;;;;5076971;28;19935;-87
2021/09/17 13:47:49;;;;;;;;;;;18.50;99.90;;;;;;5076959;28;20324;-86
2021/09/17 13:50:25;;;;;;;;;;;18.40;99.90;;;;;;5076965;28;19986;-86
2021/09/17 13:52:54;;;;;;;;;;;18.40;99.90;;;;;;5077058;28;19990;-86
2021/09/17 13:55:23;;;;;;;;;;;18.40;99.90;;;;;;5077015;28;20391;-86
2021/09/17 13:57:52;;;;;;;;;;;18.30;99.90;;;;;;5076997;28;20005;-86
2021/09/17 14:00:21;;;;;;;;;;;18.30;99.90;;;;;;5076645;28;19936;-85
2021/09/17 14:02:49;;;;;;;;;;;18.30;99.90;;;;;;5076606;28;19925;-85
2021/09/17 14:05:16;;;;;;;;;;;18.30;99.90;;;;;;5076661;28;19928;-86
2021/09/17 14:07:44;;;;;;;;;;;18.20;99.90;;;;;;5076493;28;19924;-86
2021/09/17 14:10:13;;;;;;;;;;;18.30;99.90;;;;;;5076643;28;20340;-86
2021/09/17 14:12:42;;;;;;;;;;;18.30;99.90;;;;;;5076098;28;19925;-86
2021/09/17 14:15:15;;;;;;;;;;;18.30;99.90;;;;;;5076323;28;19983;-86
2021/09/17 14:17:43;;;;;;;;;;;18.40;99.90;;;;;;5076253;28;20061;-86
2021/09/17 14:20:12;;;;;;;;;;;18.40;99.90;;;;;;5076413;28;19994;-86
2021/09/17 14:22:40;;;;;;;;;;;18.40;99.90;;;;;;5076271;28;20434;-86
2021/09/17 14:25:11;;;;;;;;;;;18.50;99.90;;;;;;5076111;28;20007;-87
2021/09/17 14:27:38;;;;;;;;;;;18.50;99.90;;;;;;5076124;28;20037;-86